createdAt,value
2018-07-22T00:00:35.676Z,20.69
2018-07-22T00:01:35.656Z,20.69
2018-07-22T00:02:35.518Z,20.69
2018-07-22T00:03:35.687Z,20.69
2018-07-22T00:04:35.785Z,20.69
2018-07-22T00:05:35.631Z,20.69
2018-07-22T00:06:35.649Z,20.69
2018-07-22T00:07:35.599Z,20.62
2018-07-22T00:08:35.678Z,20.62
2018-07-22T00:09:35.623Z,20.62
2018-07-22T00:10:35.615Z,20.62
2018-07-22T00:11:35.525Z,20.62
2018-07-22T00:12:35.551Z,20.62
2018-07-22T00:13:35.661Z,20.62
2018-07-22T00:14:35.546Z,20.62
2018-07-22T00:15:35.573Z,20.56
2018-07-22T00:16:35.538Z,20.56
2018-07-22T00:17:35.563Z,20.62
2018-07-22T00:18:35.574Z,20.62
2018-07-22T00:19:35.732Z,20.56
2018-07-22T00:20:35.560Z,20.56
2018-07-22T00:21:35.609Z,20.56
2018-07-22T00:22:35.557Z,20.56
2018-07-22T00:23:35.552Z,20.56
2018-07-22T00:24:35.788Z,20.56
2018-07-22T00:25:35.649Z,20.56
2018-07-22T00:26:35.635Z,20.56
2018-07-22T00:27:35.627Z,20.56
2018-07-22T00:28:35.569Z,20.5
2018-07-22T00:29:36.273Z,20.5
2018-07-22T00:30:35.591Z,20.44
2018-07-22T00:31:35.622Z,20.44
2018-07-22T00:32:35.576Z,20.44
2018-07-22T00:33:35.577Z,20.44
2018-07-22T00:34:35.604Z,20.44
2018-07-22T00:35:35.642Z,20.44
2018-07-22T00:36:35.585Z,20.44
2018-07-22T00:37:35.630Z,20.44
2018-07-22T00:38:35.582Z,20.5
2018-07-22T00:39:35.620Z,20.44
2018-07-22T00:40:35.729Z,20.44
2018-07-22T00:41:35.580Z,20.44
2018-07-22T00:42:35.661Z,20.44
2018-07-22T00:43:35.606Z,20.44
2018-07-22T00:44:35.593Z,20.44
2018-07-22T00:45:35.612Z,20.37
2018-07-22T00:46:35.609Z,20.44
2018-07-22T00:47:35.573Z,20.37
2018-07-22T00:48:35.567Z,20.31
2018-07-22T00:49:35.581Z,20.31
2018-07-22T00:50:35.548Z,20.31
2018-07-22T00:51:35.623Z,20.31
2018-07-22T00:52:35.600Z,20.31
2018-07-22T00:53:35.607Z,20.31
2018-07-22T00:54:35.588Z,20.31
2018-07-22T00:55:35.589Z,20.25
2018-07-22T00:56:35.610Z,20.31
2018-07-22T00:57:35.570Z,20.25
2018-07-22T00:58:35.585Z,20.25
2018-07-22T00:59:35.595Z,20.25
2018-07-22T01:00:35.617Z,20.25
2018-07-22T01:01:35.641Z,20.25
2018-07-22T01:02:35.620Z,20.25
2018-07-22T01:03:35.576Z,20.19
2018-07-22T01:04:35.617Z,20.19
2018-07-22T01:05:35.598Z,20.19
2018-07-22T01:06:35.612Z,20.19
2018-07-22T01:07:35.613Z,20.19
2018-07-22T01:08:35.570Z,20.19
2018-07-22T01:09:35.649Z,20.19
2018-07-22T01:10:35.624Z,20.19
2018-07-22T01:11:35.597Z,20.19
2018-07-22T01:12:35.801Z,20.19
2018-07-22T01:13:35.630Z,20.19
2018-07-22T01:14:35.618Z,20.12
2018-07-22T01:15:35.748Z,20.19
2018-07-22T01:16:35.625Z,20.19
2018-07-22T01:17:35.603Z,20.19
2018-07-22T01:18:35.589Z,20.12
2018-07-22T01:19:35.624Z,20.12
2018-07-22T01:20:35.813Z,20.12
2018-07-22T01:21:35.603Z,20.12
2018-07-22T01:22:35.597Z,20.12
2018-07-22T01:23:35.625Z,20.12
2018-07-22T01:24:35.668Z,20.06
2018-07-22T01:25:35.629Z,20.12
2018-07-22T01:26:35.618Z,20.12
2018-07-22T01:27:35.800Z,20.06
2018-07-22T01:28:35.656Z,20.06
2018-07-22T01:29:35.879Z,20.06
2018-07-22T01:30:35.689Z,20.06
2018-07-22T01:31:35.659Z,20.06
2018-07-22T01:32:35.621Z,20.06
2018-07-22T01:33:35.601Z,20.06
2018-07-22T01:34:35.604Z,20.06
2018-07-22T01:35:35.622Z,20.06
2018-07-22T01:36:35.620Z,20.06
2018-07-22T01:37:35.867Z,20.06
2018-07-22T01:38:35.586Z,20.06
2018-07-22T01:39:35.735Z,20.06
2018-07-22T01:40:35.658Z,20.06
2018-07-22T01:41:35.660Z,20.06
2018-07-22T01:42:35.645Z,20.06
2018-07-22T01:43:35.805Z,20.06
2018-07-22T01:44:35.602Z,20.06
2018-07-22T01:45:35.637Z,20.06
2018-07-22T01:46:35.615Z,20.06
2018-07-22T01:47:36.180Z,20.12
2018-07-22T01:48:35.596Z,20.06
2018-07-22T01:49:35.748Z,20.06
2018-07-22T01:50:35.634Z,20.12
2018-07-22T01:51:36.163Z,20.12
2018-07-22T01:52:35.690Z,20.12
2018-07-22T01:53:35.615Z,20.12
2018-07-22T01:54:35.637Z,20.12
2018-07-22T01:55:35.676Z,20.12
2018-07-22T01:56:35.669Z,20.12
2018-07-22T01:57:35.604Z,20.12
2018-07-22T01:58:35.642Z,20.12
2018-07-22T01:59:35.632Z,20.12
2018-07-22T02:00:35.607Z,20.12
2018-07-22T02:01:36.186Z,20.12
2018-07-22T02:02:35.623Z,20.12
2018-07-22T02:03:35.663Z,20.12
2018-07-22T02:04:35.592Z,20.12
2018-07-22T02:05:35.630Z,20.12
2018-07-22T02:06:35.648Z,20.06
2018-07-22T02:07:35.635Z,20.06
2018-07-22T02:08:35.652Z,20.12
2018-07-22T02:09:35.612Z,20.06
2018-07-22T02:10:35.653Z,20.12
2018-07-22T02:11:35.700Z,20.12
2018-07-22T02:12:35.692Z,20.06
2018-07-22T02:13:35.648Z,20.12
2018-07-22T02:14:35.694Z,20.06
2018-07-22T02:15:35.626Z,20.06
2018-07-22T02:16:35.649Z,20.06
2018-07-22T02:17:35.653Z,20.06
2018-07-22T02:18:35.632Z,20.12
2018-07-22T02:19:35.637Z,20.06
2018-07-22T02:20:35.714Z,20.06
2018-07-22T02:21:35.746Z,20.06
2018-07-22T02:22:35.672Z,20
2018-07-22T02:23:35.713Z,20
2018-07-22T02:24:35.615Z,20
2018-07-22T02:25:35.691Z,19.94
2018-07-22T02:26:35.659Z,19.94
2018-07-22T02:27:35.710Z,19.94
2018-07-22T02:28:35.820Z,19.87
2018-07-22T02:29:35.672Z,19.94
2018-07-22T02:30:35.726Z,19.87
2018-07-22T02:31:35.666Z,19.81
2018-07-22T02:32:35.718Z,19.81
2018-07-22T02:33:35.743Z,19.81
2018-07-22T02:34:35.685Z,19.75
2018-07-22T02:35:35.635Z,19.81
2018-07-22T02:36:35.738Z,19.75
2018-07-22T02:37:35.660Z,19.81
2018-07-22T02:38:35.680Z,19.81
2018-07-22T02:39:35.795Z,19.81
2018-07-22T02:40:35.676Z,19.81
2018-07-22T02:41:35.652Z,19.81
2018-07-22T02:42:35.665Z,19.81
2018-07-22T02:43:35.844Z,19.81
2018-07-22T02:44:35.720Z,19.81
2018-07-22T02:45:35.743Z,19.81
2018-07-22T02:46:35.761Z,19.81
2018-07-22T02:47:35.660Z,19.87
2018-07-22T02:48:35.661Z,19.87
2018-07-22T02:49:35.761Z,19.87
2018-07-22T02:50:35.727Z,19.87
2018-07-22T02:51:36.430Z,19.87
2018-07-22T02:52:35.808Z,19.87
2018-07-22T02:53:35.810Z,19.94
2018-07-22T02:54:36.001Z,19.87
2018-07-22T02:55:35.789Z,19.87
2018-07-22T02:56:35.707Z,19.87
2018-07-22T02:57:35.718Z,19.87
2018-07-22T02:58:35.763Z,19.94
2018-07-22T02:59:35.829Z,19.94
2018-07-22T03:00:35.655Z,19.94
2018-07-22T03:01:35.737Z,19.94
2018-07-22T03:02:35.647Z,19.94
2018-07-22T03:03:35.676Z,19.94
2018-07-22T03:04:35.673Z,19.94
2018-07-22T03:05:35.701Z,19.94
2018-07-22T03:06:35.828Z,20
2018-07-22T03:07:35.700Z,19.94
2018-07-22T03:08:35.709Z,19.94
2018-07-22T03:09:35.702Z,19.94
2018-07-22T03:10:35.693Z,19.94
2018-07-22T03:11:35.681Z,20
2018-07-22T03:12:35.778Z,20
2018-07-22T03:13:35.756Z,20
2018-07-22T03:14:35.859Z,20
2018-07-22T03:15:35.735Z,20
2018-07-22T03:16:35.695Z,20
2018-07-22T03:17:35.684Z,20
2018-07-22T03:18:35.696Z,19.94
2018-07-22T03:19:35.795Z,19.94
2018-07-22T03:20:35.664Z,19.94
2018-07-22T03:21:35.732Z,20
2018-07-22T03:22:35.827Z,20
2018-07-22T03:23:35.771Z,19.94
2018-07-22T03:24:35.722Z,20
2018-07-22T03:25:35.728Z,20
2018-07-22T03:26:35.767Z,20
2018-07-22T03:27:35.712Z,20
2018-07-22T03:28:35.741Z,19.94
2018-07-22T03:29:35.755Z,20
2018-07-22T03:30:36.729Z,20
2018-07-22T03:31:35.827Z,20
2018-07-22T03:32:35.735Z,20
2018-07-22T03:33:35.778Z,20
2018-07-22T03:34:35.719Z,20
2018-07-22T03:35:35.895Z,20.06
2018-07-22T03:36:35.738Z,20
2018-07-22T03:37:35.742Z,20
2018-07-22T03:38:35.795Z,20
2018-07-22T03:39:35.805Z,20.06
2018-07-22T03:40:35.729Z,20.06
2018-07-22T03:41:35.704Z,20.06
2018-07-22T03:42:35.711Z,20.06
2018-07-22T03:43:35.738Z,20.06
2018-07-22T03:44:35.722Z,20
2018-07-22T03:45:35.813Z,20
2018-07-22T03:46:35.771Z,19.94
2018-07-22T03:47:35.874Z,19.94
2018-07-22T03:48:35.729Z,19.94
2018-07-22T03:49:35.831Z,19.87
2018-07-22T03:50:35.766Z,19.87
2018-07-22T03:51:35.778Z,19.94
2018-07-22T03:52:35.707Z,19.94
2018-07-22T03:53:35.715Z,19.94
2018-07-22T03:54:35.824Z,19.94
2018-07-22T03:55:35.705Z,19.94
2018-07-22T03:56:35.861Z,19.94
2018-07-22T03:57:35.816Z,19.87
2018-07-22T03:58:35.716Z,19.87
2018-07-22T03:59:35.690Z,19.94
2018-07-22T04:00:35.739Z,19.87
2018-07-22T04:01:35.762Z,19.94
2018-07-22T04:02:35.752Z,19.87
2018-07-22T04:03:35.777Z,19.94
2018-07-22T04:04:35.711Z,19.94
2018-07-22T04:05:35.686Z,19.87
2018-07-22T04:06:35.886Z,19.94
2018-07-22T04:07:35.888Z,19.94
2018-07-22T04:08:35.772Z,19.94
2018-07-22T04:09:35.772Z,19.94
2018-07-22T04:10:35.921Z,19.87
2018-07-22T04:11:35.734Z,19.94
2018-07-22T04:12:35.883Z,19.94
2018-07-22T04:13:35.732Z,19.94
2018-07-22T04:14:35.749Z,19.94
2018-07-22T04:15:35.913Z,19.94
2018-07-22T04:16:35.761Z,19.94
2018-07-22T04:17:35.718Z,19.94
2018-07-22T04:18:35.701Z,19.94
2018-07-22T04:19:35.785Z,19.94
2018-07-22T04:20:35.707Z,19.94
2018-07-22T04:21:35.787Z,19.94
2018-07-22T04:22:35.923Z,19.94
2018-07-22T04:23:35.734Z,19.94
2018-07-22T04:24:35.718Z,19.94
2018-07-22T04:25:35.837Z,19.94
2018-07-22T04:26:35.851Z,19.94
2018-07-22T04:27:35.884Z,20
2018-07-22T04:28:35.808Z,19.94
2018-07-22T04:29:35.835Z,19.94
2018-07-22T04:30:35.716Z,19.94
2018-07-22T04:31:35.848Z,19.94
2018-07-22T04:32:35.757Z,19.94
2018-07-22T04:33:35.712Z,19.94
2018-07-22T04:34:35.738Z,19.94
2018-07-22T04:35:35.764Z,19.94
2018-07-22T04:36:35.755Z,19.87
2018-07-22T04:37:35.759Z,19.87
2018-07-22T04:38:35.819Z,19.87
2018-07-22T04:39:35.818Z,19.87
2018-07-22T04:40:36.448Z,19.87
2018-07-22T04:41:35.755Z,19.94
2018-07-22T04:42:35.733Z,19.87
2018-07-22T04:43:35.712Z,19.87
2018-07-22T04:44:35.714Z,19.94
2018-07-22T04:45:35.754Z,19.87
2018-07-22T04:46:35.738Z,19.87
2018-07-22T04:47:35.735Z,19.87
2018-07-22T04:48:35.759Z,19.87
2018-07-22T04:49:35.732Z,19.87
2018-07-22T04:50:35.774Z,19.87
2018-07-22T04:51:35.886Z,19.87
2018-07-22T04:52:35.709Z,19.81
2018-07-22T04:53:36.523Z,19.87
2018-07-22T04:54:35.785Z,19.81
2018-07-22T04:55:35.767Z,19.81
2018-07-22T04:56:35.730Z,19.81
2018-07-22T04:57:35.789Z,19.81
2018-07-22T04:58:35.771Z,19.81
2018-07-22T04:59:35.812Z,19.81
2018-07-22T05:00:35.750Z,19.81
2018-07-22T05:01:35.796Z,19.87
2018-07-22T05:02:35.771Z,19.87
2018-07-22T05:03:35.741Z,19.87
2018-07-22T05:04:35.739Z,19.94
2018-07-22T05:05:35.925Z,19.94
2018-07-22T05:06:35.788Z,19.94
2018-07-22T05:07:35.726Z,19.94
2018-07-22T05:08:35.924Z,19.94
2018-07-22T05:09:35.801Z,20
2018-07-22T05:10:35.795Z,20
2018-07-22T05:11:35.792Z,20
2018-07-22T05:12:35.781Z,20
2018-07-22T05:13:35.733Z,20
2018-07-22T05:14:35.754Z,20.06
2018-07-22T05:15:35.835Z,20
2018-07-22T05:16:35.739Z,20
2018-07-22T05:17:36.046Z,20.06
2018-07-22T05:18:35.981Z,20
2018-07-22T05:19:35.795Z,20
2018-07-22T05:20:35.859Z,20
2018-07-22T05:21:35.802Z,20
2018-07-22T05:22:36.339Z,20
2018-07-22T05:23:35.909Z,20
2018-07-22T05:24:35.778Z,20
2018-07-22T05:25:35.784Z,20
2018-07-22T05:26:35.865Z,19.94
2018-07-22T05:27:35.880Z,20
2018-07-22T05:28:35.896Z,20
2018-07-22T05:29:35.770Z,20
2018-07-22T05:30:35.966Z,20
2018-07-22T05:31:35.745Z,20
2018-07-22T05:32:35.798Z,19.94
2018-07-22T05:33:35.858Z,19.94
2018-07-22T05:34:35.732Z,19.87
2018-07-22T05:35:35.756Z,19.87
2018-07-22T05:36:35.821Z,19.94
2018-07-22T05:37:35.824Z,19.87
2018-07-22T05:38:35.784Z,19.87
2018-07-22T05:39:35.784Z,19.94
2018-07-22T05:40:35.801Z,19.87
2018-07-22T05:41:35.828Z,19.94
2018-07-22T05:42:35.779Z,19.94
2018-07-22T05:43:35.785Z,19.94
2018-07-22T05:44:35.821Z,20
2018-07-22T05:45:35.765Z,19.94
2018-07-22T05:46:35.771Z,20
2018-07-22T05:47:35.816Z,20
2018-07-22T05:48:35.800Z,20
2018-07-22T05:49:35.749Z,20
2018-07-22T05:50:35.755Z,20
2018-07-22T05:51:35.774Z,20.06
2018-07-22T05:52:35.813Z,20
2018-07-22T05:53:35.820Z,20.06
2018-07-22T05:54:35.777Z,20.06
2018-07-22T05:55:35.791Z,20.06
2018-07-22T05:56:35.917Z,20.12
2018-07-22T05:57:35.815Z,20.12
2018-07-22T05:58:35.822Z,20.12
2018-07-22T05:59:35.771Z,20.19
2018-07-22T06:00:35.783Z,20.19
2018-07-22T06:01:35.816Z,20.19
2018-07-22T06:02:35.854Z,20.19
2018-07-22T06:03:35.769Z,20.25
2018-07-22T06:04:35.771Z,20.25
2018-07-22T06:05:35.841Z,20.25
2018-07-22T06:06:35.872Z,20.25
2018-07-22T06:07:35.817Z,20.25
2018-07-22T06:08:35.998Z,20.25
2018-07-22T06:09:35.975Z,20.19
2018-07-22T06:10:35.777Z,20.25
2018-07-22T06:11:35.832Z,20.25
2018-07-22T06:12:35.806Z,20.25
2018-07-22T06:13:35.822Z,20.25
2018-07-22T06:14:35.824Z,20.25
2018-07-22T06:15:35.860Z,20.25
2018-07-22T06:16:36.041Z,20.31
2018-07-22T06:17:35.944Z,20.31
2018-07-22T06:18:35.843Z,20.37
2018-07-22T06:19:35.814Z,20.37
2018-07-22T06:20:35.793Z,20.44
2018-07-22T06:21:35.836Z,20.44
2018-07-22T06:22:35.951Z,20.44
2018-07-22T06:23:35.800Z,20.44
2018-07-22T06:24:35.809Z,20.44
2018-07-22T06:25:35.998Z,20.44
2018-07-22T06:26:35.828Z,20.5
2018-07-22T06:27:35.894Z,20.44
2018-07-22T06:28:35.865Z,20.5
2018-07-22T06:29:35.870Z,20.5
2018-07-22T06:30:35.984Z,20.5
2018-07-22T06:31:35.868Z,20.5
2018-07-22T06:32:36.237Z,20.5
2018-07-22T06:33:35.866Z,20.5
2018-07-22T06:34:35.959Z,20.56
2018-07-22T06:35:35.857Z,20.5
2018-07-22T06:36:35.787Z,20.56
2018-07-22T06:37:35.836Z,20.56
2018-07-22T06:38:35.965Z,20.5
2018-07-22T06:39:35.869Z,20.5
2018-07-22T06:40:35.951Z,20.5
2018-07-22T06:41:35.791Z,20.44
2018-07-22T06:42:35.827Z,20.5
2018-07-22T06:43:35.971Z,20.37
2018-07-22T06:44:35.987Z,20.31
2018-07-22T06:45:35.817Z,20.37
2018-07-22T06:46:36.477Z,20.37
2018-07-22T06:47:35.925Z,20.44
2018-07-22T06:48:35.850Z,20.5
2018-07-22T06:49:36.992Z,20.5
2018-07-22T06:50:35.874Z,20.56
2018-07-22T06:51:35.823Z,20.62
2018-07-22T06:52:35.832Z,20.69
2018-07-22T06:53:36.492Z,20.75
2018-07-22T06:54:35.834Z,20.75
2018-07-22T06:55:35.851Z,20.81
2018-07-22T06:56:35.812Z,20.81
2018-07-22T06:57:35.895Z,20.88
2018-07-22T06:58:35.841Z,20.88
2018-07-22T06:59:36.095Z,20.94
2018-07-22T07:00:35.852Z,20.94
2018-07-22T07:01:35.826Z,21
2018-07-22T07:02:35.819Z,21
2018-07-22T07:03:35.827Z,21
2018-07-22T07:04:35.825Z,21.06
2018-07-22T07:05:35.960Z,21.12
2018-07-22T07:06:35.827Z,21.12
2018-07-22T07:07:35.890Z,21.06
2018-07-22T07:08:36.505Z,21.12
2018-07-22T07:09:35.822Z,21.12
2018-07-22T07:10:35.863Z,21.06
2018-07-22T07:11:35.812Z,21.06
2018-07-22T07:12:35.847Z,21.06
2018-07-22T07:13:35.847Z,21.06
2018-07-22T07:14:35.836Z,21.12
2018-07-22T07:15:35.856Z,21.06
2018-07-22T07:16:35.837Z,21.06
2018-07-22T07:17:35.844Z,21.06
2018-07-22T07:18:35.915Z,21.06
2018-07-22T07:19:35.963Z,21.06
2018-07-22T07:20:35.849Z,21.06
2018-07-22T07:21:35.824Z,21.06
2018-07-22T07:22:35.858Z,21.06
2018-07-22T07:23:35.838Z,21.06
2018-07-22T07:24:35.891Z,21.06
2018-07-22T07:25:35.872Z,21.06
2018-07-22T07:26:36.241Z,21
2018-07-22T07:27:35.917Z,21.06
2018-07-22T07:28:35.863Z,21
2018-07-22T07:29:36.016Z,21
2018-07-22T07:30:35.941Z,21
2018-07-22T07:31:35.883Z,21
2018-07-22T07:32:35.998Z,21.06
2018-07-22T07:33:36.351Z,21
2018-07-22T07:34:36.100Z,21
2018-07-22T07:35:35.879Z,21
2018-07-22T07:36:35.845Z,21
2018-07-22T07:37:35.852Z,21.06
2018-07-22T07:38:35.877Z,21
2018-07-22T07:39:36.073Z,21
2018-07-22T07:40:35.855Z,21.06
2018-07-22T07:41:35.864Z,21.06
2018-07-22T07:42:35.893Z,21.12
2018-07-22T07:43:36.027Z,21.12
2018-07-22T07:44:35.950Z,21.12
2018-07-22T07:45:35.971Z,21.12
2018-07-22T07:46:35.841Z,21.19
2018-07-22T07:47:35.866Z,21.19
2018-07-22T07:48:35.884Z,21.12
2018-07-22T07:49:36.163Z,21.12
2018-07-22T07:50:35.843Z,21.12
2018-07-22T07:51:35.932Z,21.19
2018-07-22T07:52:35.886Z,21.19
2018-07-22T07:53:35.918Z,21.19
2018-07-22T07:54:35.852Z,21.25
2018-07-22T07:55:35.907Z,21.25
2018-07-22T07:56:36.063Z,21.25
2018-07-22T07:57:35.855Z,21.25
2018-07-22T07:58:35.872Z,21.31
2018-07-22T07:59:35.919Z,21.31
2018-07-22T08:00:35.869Z,21.31
2018-07-22T08:01:35.920Z,21.31
2018-07-22T08:02:35.990Z,21.31
2018-07-22T08:03:35.899Z,21.31
2018-07-22T08:04:35.884Z,21.31
2018-07-22T08:05:36.628Z,21.31
2018-07-22T08:06:35.932Z,21.25
2018-07-22T08:07:35.947Z,21.25
2018-07-22T08:08:35.865Z,21.31
2018-07-22T08:09:35.903Z,21.25
2018-07-22T08:10:35.896Z,21.31
2018-07-22T08:11:36.233Z,21.31
2018-07-22T08:12:36.074Z,21.31
2018-07-22T08:13:36.004Z,21.31
2018-07-22T08:14:36.101Z,21.25
2018-07-22T08:15:35.907Z,21.31
2018-07-22T08:16:35.932Z,21.37
2018-07-22T08:17:35.919Z,21.37
2018-07-22T08:18:35.895Z,21.37
2018-07-22T08:19:36.578Z,21.37
2018-07-22T08:20:35.909Z,21.37
2018-07-22T08:21:37.481Z,21.44
2018-07-22T08:22:35.861Z,21.44
2018-07-22T08:23:35.868Z,21.44
2018-07-22T08:24:35.928Z,21.5
2018-07-22T08:25:35.866Z,21.56
2018-07-22T08:26:36.078Z,21.56
2018-07-22T08:27:35.912Z,21.5
2018-07-22T08:28:35.901Z,21.56
2018-07-22T08:29:35.887Z,21.56
2018-07-22T08:30:36.343Z,21.62
2018-07-22T08:31:36.007Z,21.62
2018-07-22T08:32:35.913Z,21.69
2018-07-22T08:33:35.902Z,21.62
2018-07-22T08:34:35.949Z,21.69
2018-07-22T08:35:35.944Z,21.69
2018-07-22T08:36:38.926Z,21.69
2018-07-22T08:37:36.850Z,21.81
2018-07-22T08:38:36.078Z,21.87
2018-07-22T08:39:35.996Z,21.87
2018-07-22T08:40:35.957Z,21.94
2018-07-22T08:41:36.719Z,21.87
2018-07-22T08:42:36.083Z,21.94
2018-07-22T08:43:35.964Z,21.94
2018-07-22T08:44:35.997Z,21.87
2018-07-22T08:45:35.935Z,21.94
2018-07-22T08:46:35.949Z,21.87
2018-07-22T08:47:36.481Z,21.94
2018-07-22T08:48:35.933Z,21.94
2018-07-22T08:49:35.936Z,21.94
2018-07-22T08:50:36.080Z,21.94
2018-07-22T08:51:36.202Z,22
2018-07-22T08:52:36.114Z,22
2018-07-22T08:53:35.896Z,22
2018-07-22T08:54:35.947Z,22
2018-07-22T08:55:35.960Z,22
2018-07-22T08:56:35.933Z,22.06
2018-07-22T08:57:36.006Z,22.06
2018-07-22T08:58:35.933Z,22.06
2018-07-22T08:59:36.248Z,22.06
2018-07-22T09:00:35.989Z,22.13
2018-07-22T09:01:35.992Z,22.19
2018-07-22T09:02:36.762Z,22.25
2018-07-22T09:03:35.961Z,22.19
2018-07-22T09:04:35.946Z,22.25
2018-07-22T09:05:36.767Z,22.31
2018-07-22T09:06:35.960Z,22.25
2018-07-22T09:07:35.929Z,22.25
2018-07-22T09:08:36.002Z,22.25
2018-07-22T09:09:35.938Z,22.25
2018-07-22T09:10:36.180Z,22.25
2018-07-22T09:11:36.418Z,22.31
2018-07-22T09:12:35.969Z,22.31
2018-07-22T09:13:36.531Z,22.37
2018-07-22T09:14:35.963Z,22.37
2018-07-22T09:15:36.021Z,22.44
2018-07-22T09:16:35.997Z,22.44
2018-07-22T09:17:36.191Z,22.5
2018-07-22T09:18:35.915Z,22.5
2018-07-22T09:19:35.958Z,22.44
2018-07-22T09:20:35.970Z,22.5
2018-07-22T09:21:35.981Z,22.5
2018-07-22T09:22:36.048Z,22.5
2018-07-22T09:23:35.997Z,22.5
2018-07-22T09:24:35.943Z,22.56
2018-07-22T09:25:35.961Z,22.56
2018-07-22T09:26:36.096Z,22.56
2018-07-22T09:27:36.090Z,22.56
2018-07-22T09:28:35.939Z,22.56
2018-07-22T09:29:35.907Z,22.62
2018-07-22T09:30:36.140Z,22.62
2018-07-22T09:31:35.944Z,22.62
2018-07-22T09:32:36.275Z,22.69
2018-07-22T09:33:35.942Z,22.62
2018-07-22T09:34:36.326Z,22.69
2018-07-22T09:35:35.914Z,22.75
2018-07-22T09:36:36.946Z,22.69
2018-07-22T09:37:36.096Z,22.69
2018-07-22T09:38:36.177Z,22.62
2018-07-22T09:39:35.956Z,22.69
2018-07-22T09:40:36.158Z,22.69
2018-07-22T09:41:35.943Z,22.62
2018-07-22T09:42:36.114Z,22.69
2018-07-22T09:43:36.012Z,22.69
2018-07-22T09:44:36.090Z,22.62
2018-07-22T09:45:36.059Z,22.69
2018-07-22T09:46:36.080Z,22.69
2018-07-22T09:47:36.141Z,22.69
2018-07-22T09:48:36.153Z,22.75
2018-07-22T09:49:36.032Z,22.75
2018-07-22T09:50:36.059Z,22.75
2018-07-22T09:51:35.944Z,22.75
2018-07-22T09:52:36.089Z,22.75
2018-07-22T09:53:36.392Z,22.81
2018-07-22T09:54:35.997Z,22.81
2018-07-22T09:55:36.051Z,22.81
2018-07-22T09:56:36.307Z,22.81
2018-07-22T09:57:36.162Z,22.87
2018-07-22T09:58:36.729Z,22.87
2018-07-22T09:59:36.056Z,22.87
2018-07-22T10:00:36.165Z,22.87
2018-07-22T10:01:36.167Z,22.94
2018-07-22T10:02:36.174Z,22.94
2018-07-22T10:03:36.198Z,22.94
2018-07-22T10:04:36.775Z,23
2018-07-22T10:05:36.227Z,23
2018-07-22T10:06:39.777Z,23
2018-07-22T10:07:37.245Z,23
2018-07-22T10:08:36.106Z,23
2018-07-22T10:09:36.284Z,23
2018-07-22T10:10:36.834Z,23
2018-07-22T10:11:37.429Z,23.06
2018-07-22T10:12:36.386Z,23.06
2018-07-22T10:13:36.241Z,23.12
2018-07-22T10:14:37.057Z,23.19
2018-07-22T10:15:35.950Z,23.19
2018-07-22T10:16:35.955Z,23.25
2018-07-22T10:17:36.462Z,23.31
2018-07-22T10:18:35.982Z,23.38
2018-07-22T10:19:36.079Z,23.38
2018-07-22T10:20:36.199Z,23.38
2018-07-22T10:21:36.017Z,23.38
2018-07-22T10:22:35.944Z,23.31
2018-07-22T10:23:36.059Z,23.31
2018-07-22T10:24:35.987Z,23.31
2018-07-22T10:25:35.997Z,23.38
2018-07-22T10:26:36.054Z,23.5
2018-07-22T10:27:35.977Z,23.5
2018-07-22T10:28:36.447Z,23.56
2018-07-22T10:29:36.039Z,23.69
2018-07-22T10:30:36.006Z,23.75
2018-07-22T10:31:36.003Z,23.81
2018-07-22T10:32:36.091Z,23.81
2018-07-22T10:33:36.149Z,23.81
2018-07-22T10:34:36.205Z,23.81
2018-07-22T10:35:36.122Z,23.75
2018-07-22T10:36:36.253Z,23.75
2018-07-22T10:37:36.022Z,23.81
2018-07-22T10:38:36.050Z,23.81
2018-07-22T10:39:36.045Z,23.81
2018-07-22T10:40:36.158Z,23.94
2018-07-22T10:41:36.057Z,24
2018-07-22T10:42:36.795Z,24
2018-07-22T10:43:36.017Z,24.06
2018-07-22T10:44:36.093Z,24.12
2018-07-22T10:45:35.979Z,24.19
2018-07-22T10:46:36.130Z,24.19
2018-07-22T10:47:36.123Z,24.25
2018-07-22T10:48:36.056Z,24.25
2018-07-22T10:49:36.169Z,24.25
2018-07-22T10:50:36.244Z,24.31
2018-07-22T10:51:36.112Z,24.25
2018-07-22T10:52:36.114Z,24.25
2018-07-22T10:53:35.997Z,24.12
2018-07-22T10:54:36.128Z,24.12
2018-07-22T10:55:36.139Z,24.19
2018-07-22T10:56:36.141Z,24.25
2018-07-22T10:57:36.249Z,24.25
2018-07-22T10:58:36.053Z,24.25
2018-07-22T10:59:36.133Z,24.31
2018-07-22T11:00:36.157Z,24.37
2018-07-22T11:01:36.111Z,24.44
2018-07-22T11:02:36.230Z,24.56
2018-07-22T11:03:36.234Z,24.56
2018-07-22T11:04:36.164Z,24.63
2018-07-22T11:05:36.098Z,24.56
2018-07-22T11:06:36.144Z,24.56
2018-07-22T11:07:36.159Z,24.5
2018-07-22T11:08:36.063Z,24.5
2018-07-22T11:09:36.074Z,24.5
2018-07-22T11:10:36.065Z,24.5
2018-07-22T11:11:36.319Z,24.5
2018-07-22T11:12:36.203Z,24.63
2018-07-22T11:13:36.091Z,24.69
2018-07-22T11:14:36.626Z,24.75
2018-07-22T11:15:36.115Z,24.75
2018-07-22T11:16:36.859Z,24.81
2018-07-22T11:17:36.049Z,24.81
2018-07-22T11:18:36.308Z,25
2018-07-22T11:19:36.239Z,25
2018-07-22T11:20:36.321Z,25
2018-07-22T11:21:36.189Z,25
2018-07-22T11:22:36.167Z,24.87
2018-07-22T11:23:36.785Z,24.87
2018-07-22T11:24:36.079Z,24.81
2018-07-22T11:25:36.791Z,24.81
2018-07-22T11:26:36.177Z,24.87
2018-07-22T11:27:36.197Z,24.87
2018-07-22T11:28:39.805Z,24.94
2018-07-22T11:29:36.043Z,25
2018-07-22T11:30:36.134Z,25
2018-07-22T11:31:36.203Z,25
2018-07-22T11:32:36.084Z,25
2018-07-22T11:33:37.174Z,25
2018-07-22T11:34:36.102Z,25.12
2018-07-22T11:35:36.182Z,25.12
2018-07-22T11:36:36.063Z,25.06
2018-07-22T11:37:36.025Z,25.12
2018-07-22T11:38:36.845Z,25.12
2018-07-22T11:39:36.018Z,25.12
2018-07-22T11:40:36.053Z,25.12
2018-07-22T11:41:36.148Z,25.19
2018-07-22T11:42:36.151Z,25.19
2018-07-22T11:43:36.148Z,25.19
2018-07-22T11:44:36.100Z,25.12
2018-07-22T11:45:36.070Z,25.19
2018-07-22T11:46:36.042Z,25.25
2018-07-22T11:47:36.121Z,25.31
2018-07-22T11:48:36.075Z,25.31
2018-07-22T11:49:36.427Z,25.37
2018-07-22T11:50:36.514Z,25.31
2018-07-22T11:51:36.207Z,25.37
2018-07-22T11:52:36.146Z,25.37
2018-07-22T11:53:36.032Z,25.31
2018-07-22T11:54:36.092Z,25.31
2018-07-22T11:55:36.234Z,25.31
2018-07-22T11:56:36.169Z,25.31
2018-07-22T11:57:36.184Z,25.44
2018-07-22T11:58:36.315Z,25.44
2018-07-22T11:59:36.053Z,25.5
2018-07-22T12:00:36.041Z,25.56
2018-07-22T12:01:36.171Z,25.56
2018-07-22T12:02:36.480Z,25.56
2018-07-22T12:03:36.085Z,25.56
2018-07-22T12:04:36.234Z,25.5
2018-07-22T12:05:36.085Z,25.44
2018-07-22T12:06:36.113Z,25.44
2018-07-22T12:07:36.464Z,25.44
2018-07-22T12:08:36.330Z,25.44
2018-07-22T12:09:36.292Z,25.44
2018-07-22T12:10:36.167Z,25.44
2018-07-22T12:11:36.112Z,25.37
2018-07-22T12:12:36.768Z,25.44
2018-07-22T12:13:36.191Z,25.5
2018-07-22T12:14:36.044Z,25.62
2018-07-22T12:15:36.263Z,25.62
2018-07-22T12:16:36.986Z,25.69
2018-07-22T12:17:36.308Z,25.94
2018-07-22T12:18:36.068Z,25.88
2018-07-22T12:19:36.125Z,26
2018-07-22T12:20:36.080Z,26.12
2018-07-22T12:21:36.174Z,26.06
2018-07-22T12:22:36.097Z,26.06
2018-07-22T12:23:36.451Z,26.12
2018-07-22T12:24:36.079Z,26.12
2018-07-22T12:25:36.176Z,26.19
2018-07-22T12:26:36.185Z,26.19
2018-07-22T12:27:36.888Z,26.19
2018-07-22T12:28:36.126Z,26.19
2018-07-22T12:29:36.215Z,26.25
2018-07-22T12:30:36.780Z,26.25
2018-07-22T12:31:36.173Z,26.19
2018-07-22T12:32:36.106Z,26.12
2018-07-22T12:33:36.114Z,26.06
2018-07-22T12:34:36.173Z,26.06
2018-07-22T12:35:36.246Z,26.06
2018-07-22T12:36:36.277Z,26
2018-07-22T12:37:36.158Z,26
2018-07-22T12:38:36.169Z,26
2018-07-22T12:39:36.078Z,25.88
2018-07-22T12:40:36.835Z,25.88
2018-07-22T12:41:36.104Z,25.81
2018-07-22T12:42:36.087Z,25.81
2018-07-22T12:43:36.165Z,25.81
2018-07-22T12:44:36.310Z,25.81
2018-07-22T12:45:36.202Z,25.81
2018-07-22T12:46:37.437Z,25.75
2018-07-22T12:47:37.292Z,25.69
2018-07-22T12:48:36.120Z,25.69
2018-07-22T12:49:36.212Z,25.75
2018-07-22T12:50:36.138Z,25.69
2018-07-22T12:51:36.152Z,25.56
2018-07-22T12:52:36.120Z,25.56
2018-07-22T12:53:36.260Z,25.37
2018-07-22T12:54:37.757Z,25.31
2018-07-22T12:55:36.105Z,25.25
2018-07-22T12:56:37.029Z,25.19
2018-07-22T12:57:36.103Z,25.19
2018-07-22T12:58:36.127Z,25.19
2018-07-22T12:59:36.120Z,25
2018-07-22T13:00:36.934Z,25
2018-07-22T13:01:36.103Z,25
2018-07-22T13:02:36.099Z,24.94
2018-07-22T13:03:36.320Z,25